ADDS METAR Data INFO
IDs: Format: Raw Decoded Include TAF

Data at: 1147 UTC 25 Jun 2018

KGPM 251135Z AUTO 28003KT 10SM BKN029 BKN035 BKN044 28/20 A3005 RMK AO2 T02750202
KGPM 251115Z AUTO 28006KT 10SM SCT029 BKN035 BKN042 27/20 A3005 RMK AO2 T02720202
KGPM 251055Z AUTO 20012G15KT 10SM SCT034 27/20 A2997 RMK AO2 T02680200
KGPM 251035Z AUTO 20010G18KT 10SM SCT034 SCT095 27/20 A2994 RMK AO2 T02680201
KGPM 251015Z AUTO 18010G18KT 10SM BKN034 BKN095 27/20 A2992 RMK AO2 T02670204
KGPM 250955Z AUTO 18011G16KT 10SM SCT026 BKN034 27/21 A2992 RMK AO2 T02670206
KGPM 250935Z AUTO 17008G23KT 10SM SCT026 BKN034 27/21 A2991 RMK AO2 T02700206
KGPM 250915Z AUTO 18014G21KT 10SM BKN034 27/21 A2990 RMK AO2 T02710206
KGPM 250855Z AUTO 17013G23KT 10SM SCT027 SCT032 27/21 A2989 RMK AO2 T02710208
KGPM 250835Z AUTO 17013G22KT 10SM BKN027 27/21 A2988 RMK AO2 T02730210
KGPM 250815Z AUTO 17014G23KT 10SM BKN025 28/21 A2987 RMK AO2 T02750212
KGPM 250755Z AUTO 16015G23KT 10SM BKN025 27/21 A2985 RMK AO2 T02740211
KGPM 250735Z AUTO 15014G22KT 10SM CLR 28/21 A2985 RMK AO2 T02750210
KGPM 250720Z AUTO 15009G22KT 10SM CLR 28/21 A2985 RMK AO2 T02770210
KGPM 250655Z AUTO 16014G23KT 10SM CLR 28/21 A2984 RMK AO2 T02800207
KGPM 250635Z AUTO 15011G20KT 10SM CLR 28/21 A2986 RMK AO2 T02820207
KGPM 250615Z AUTO 16012G19KT 10SM CLR 29/21 A2985 RMK AO2 T02860206
KGPM 250555Z AUTO 15013G20KT 10SM CLR 29/21 A2986 RMK AO2 T02880207 10354 20288 403700270
KGPM 250535Z AUTO 14012G20KT 10SM CLR 29/21 A2986 RMK AO2 T02910207
KGPM 250515Z AUTO 14016G21KT 10SM CLR 30/21 A2986 RMK AO2 T02950205
KGPM 250455Z AUTO 14012G18KT 10SM CLR 30/20 A2987 RMK AO2 T02960197
KGPM 250435Z AUTO 14010G15KT 10SM CLR 30/20 A2987 RMK AO2 T03000197
KGPM 250415Z AUTO 15010KT 10SM CLR 30/20 A2987 RMK AO2 T03030197
KGPM 250355Z AUTO 15009G14KT 10SM CLR 31/19 A2987 RMK AO2 T03050194
KGPM 250335Z AUTO 14008KT 10SM CLR 31/19 A2986 RMK AO2 T03100188
KGPM 250315Z AUTO 13007KT 10SM CLR 31/18 A2986 RMK AO2 T03140184
KGPM 250255Z AUTO 15009G16KT 10SM CLR 32/18 A2985 RMK AO2 T03190180
KGPM 250235Z AUTO 14011G16KT 10SM CLR 32/18 A2984 RMK AO2 T03210176
KGPM 250215Z AUTO 14009G18KT 10SM CLR 33/18 A2983 RMK AO2 T03250178
KGPM 250150Z 13011G17KT 10SM SKC 33/18 A2983
KGPM 250050Z 12010G18KT 10SM SKC 34/18 A2984
KGPM 242350Z 13010G18KT 10SM SKC 35/17 A2985
KGPM 242250Z 13013G24KT 10SM SKC 37/18 A2983
KGPM 242150Z 15015G27KT 10SM SKC 37/17 A2979
KGPM 242050Z 14016G22KT 10SM SKC 37/17 A2979
KGPM 241950Z 15019G26KT 10SM SKC 36/18 A2980
KGPM 241850Z 16014G20KT 10SM SKC 35/19 A2985
KGPM 241750Z 18011G17KT 10SM SKC 32/20 A2987
KGPM 241650Z 16010G16KT 10SM SCT038 32/20 A2988
KGPM 241550Z 17010G18KT 10SM SCT038 31/20 A2989
KGPM 241450Z 17006KT 10SM SCT034 SCT041 29/21 A2990
KGPM 241350Z 16006KT 10SM BKN028 BKN034 27/21 A2988
KGPM 241250Z 17011G17KT 10SM BKN028 27/21 A2983
KGPM 241150Z 17011G17KT 10SM BKN028 27/21 A2981
KGPM 241135Z AUTO 18011G18KT 140V200 10SM BKN030 27/20 A2980 RMK AO2 T02720203
KGPM 241115Z AUTO 20010G16KT 10SM BKN030 27/20 A2980 RMK AO2 T02720203
KGPM 241055Z AUTO 19013G21KT 10SM BKN028 27/21 A2977 RMK AO2 T02730205
KGPM 241035Z AUTO 18014G22KT 150V210 10SM CLR 27/21 A2975 RMK AO2 T02720207
KGPM 241015Z AUTO 17021G27KT 10SM CLR 27/21 A2969 RMK AO2 T02710210
KGPM 240955Z AUTO 16023G32KT 10SM CLR 27/21 A2966 RMK AO2 T02720210
KGPM 240935Z AUTO 16020G30KT 10SM CLR 27/21 A2968 RMK AO2 T02740210
KGPM 240915Z AUTO 16022G30KT 10SM CLR 28/21 A2970 RMK AO2 T02750210
KGPM 240855Z AUTO 17017G26KT 10SM CLR 28/21 A2969 RMK AO2 T02750210
KGPM 240835Z AUTO 15018G32KT 10SM CLR 28/21 A2968 RMK AO2 T02750211
KGPM 240815Z AUTO 15022G31KT 10SM CLR 28/21 A2970 RMK AO2 T02760212
KGPM 240755Z AUTO 16015G22KT 10SM CLR 28/21 A2972 RMK AO2 T02780212
KGPM 240735Z AUTO 16015G21KT 10SM CLR 28/21 A2976 RMK AO2 T02810211
KGPM 240715Z AUTO 16013G20KT 10SM CLR 29/21 A2980 RMK AO2 T02850210
KGPM 240655Z AUTO 17010G19KT 10SM CLR 29/21 A2982 RMK AO2 T02870210
KGPM 240635Z AUTO 16013G19KT 10SM CLR 29/21 A2982 RMK AO2 T02900207
KGPM 240615Z AUTO 16011G17KT 10SM CLR 29/21 A2984 RMK AO2 T02920205
KGPM 240555Z AUTO 17010G20KT 10SM CLR 30/21 A2984 RMK AO2 T02950205 10351 20295 403650271
KGPM 240535Z AUTO 16010G19KT 10SM CLR 30/20 A2983 RMK AO2 T02960203
KGPM 240515Z AUTO 16010G17KT 10SM CLR 30/20 A2983 RMK AO2 T03000202
KGPM 240455Z AUTO 15011G19KT 10SM CLR 30/20 A2980 RMK AO2 T03010202
KGPM 240435Z AUTO 15013G20KT 10SM CLR 31/20 A2980 RMK AO2 T03050202
KGPM 240415Z AUTO 14009G20KT 10SM CLR 31/20 A2980 RMK AO2 T03070201
KGPM 240355Z AUTO 15012G17KT 10SM CLR 31/20 A2979 RMK AO2 T03100203
KGPM 240335Z AUTO 14010G15KT 10SM CLR 31/20 A2976 RMK AO2 T03110199
KGPM 240315Z AUTO 14010KT 10SM CLR 32/19 A2976 RMK AO2 T03160194
KGPM 240255Z AUTO 13010KT 10SM CLR 32/19 A2975 RMK AO2 T03200191
KGPM 240235Z AUTO 14009G15KT 10SM CLR 32/19 A2975 RMK AO2 T03220188
KGPM 240215Z AUTO 13007KT 10SM CLR 33/18 A2975 RMK AO2 T03250184
KGPM 240150Z 14008KT 10SM SKC 33/18 A2975
KGPM 240050Z 14007G15KT 10SM SKC 34/17 A2975
KGPM 232350Z 13007G18KT 10SM SKC 35/17 A2974